DAAP

Illizi Takhamalt Airport

Illizi, Algeria
TAF DAAP 230800Z 2309/2318 10012KT 6000 NSC PROB40 2309/2312 4000 HZ
Issued Valid From Valid To
Apr-23 @ 08:00 UTC
(an hour ago)
Apr-23 @ 09:00 UTC
(28 minutes ago)
Apr-23 @ 18:00 UTC
(in 9 hours)
Apr-23 @ 09:00 to Apr-23 @ 18:00
TAF DAAP 230800Z 2309/2318 10012KT 6000 NSC
Wind Visibility Clouds
100° at 12 knots 6,003 meters
  • No significant clouds
Probable  (Probability 40%) Apr-23 @ 09:00 to Apr-23 @ 12:00
PROB40 2309/2312 4000 HZ
Visibility Conditions
4,007 meters
  • Haze
TAF DAAP 230800Z 2309/2318 10012KT 6000 NSC PROB40 2309/2312 4000 HZ
Issued Apr-23 @ 08:00 UTC
(an hour ago)
Valid From Apr-23 @ 09:00 UTC
(28 minutes ago)
Valid To Apr-23 @ 18:00 UTC
(in 9 hours)
Apr-23 @ 09:00 - Apr-23 @ 18:00
Wind Visibility
100° at 12 knots 6,003 meters
Clouds
  • No significant clouds
Probability 40% Probable Apr-23 @ 09:00 - Apr-23 @ 12:00
Conditions
  • Haze